ENCN/KRS METAR and TAF weather

Enter ICAO airport designator
Station Type Date Time Source
ENCN METAR 2020/09/18 23:20 UTC NOAA

ENCN 182320Z AUTO 06005KT 9999 NCD 10/10 Q1025


Station Type Date Time Source
ENCN Decoded METAR 2020/09/18 23:20 UTC NOAA

Kristiansand / Kjevik, Norway (ENCN) 58-12N 008-05E 17M
Sep 18, 2020 - 07:20 PM EDT / 2020.09.18 2320 UTC
Wind: from the ENE (060 degrees) at 6 MPH (5 KT):0
Visibility: greater than 7 mile(s):0
Temperature: 50 F (10 C)
Dew Point: 50 F (10 C)
Relative Humidity: 100%
Pressure (altimeter): 30.27 in. Hg (1025 hPa)
ob: ENCN 182320Z AUTO 06005KT 9999 NCD 10/10 Q1025
cycle: 23

Station Type Date Time Source
ENCN TAF 2016/05/06 12:39 UTC NOAA

TAF TAF ENCN 061100Z 0612/0712 14008KT 9999 FEW040

Example: see airport list